createdAt,value
2018-11-29T00:02:32.734Z,-3.60
2018-11-29T00:05:24.668Z,-3.70
2018-11-29T00:08:16.775Z,-3.70
2018-11-29T00:10:53.410Z,-3.70
2018-11-29T00:13:29.863Z,-3.70
2018-11-29T00:16:06.465Z,-3.70
2018-11-29T00:18:42.536Z,-3.70
2018-11-29T00:21:18.185Z,-3.70
2018-11-29T00:23:54.330Z,-3.80
2018-11-29T00:26:29.975Z,-3.80
2018-11-29T00:29:05.921Z,-3.80
2018-11-29T00:31:41.957Z,-3.80
2018-11-29T00:34:18.069Z,-3.80
2018-11-29T00:36:53.712Z,-3.80
2018-11-29T00:39:29.510Z,-3.80
2018-11-29T00:42:05.425Z,-3.90
2018-11-29T00:44:41.174Z,-3.90
2018-11-29T00:47:16.903Z,-3.90
2018-11-29T00:49:52.804Z,-3.90
2018-11-29T00:52:28.651Z,-4.00
2018-11-29T00:55:04.477Z,-4.00
2018-11-29T00:57:40.551Z,-4.00
2018-11-29T01:00:18.861Z,-4.00
2018-11-29T01:02:55.124Z,-4.00
2018-11-29T01:05:30.990Z,-4.00
2018-11-29T01:08:07.364Z,-4.00
2018-11-29T01:10:43.067Z,-4.00
2018-11-29T01:13:18.784Z,-4.00
2018-11-29T01:15:54.780Z,-4.10
2018-11-29T01:18:30.723Z,-4.20
2018-11-29T01:21:06.893Z,-4.30
2018-11-29T01:23:42.994Z,-4.30
2018-11-29T01:26:18.835Z,-4.30
2018-11-29T01:28:54.652Z,-4.30
2018-11-29T01:31:30.811Z,-4.30
2018-11-29T01:34:08.122Z,-4.30
2018-11-29T01:36:44.080Z,-4.30
2018-11-29T01:39:20.378Z,-4.30
2018-11-29T01:41:56.556Z,-4.40
2018-11-29T01:44:32.545Z,-4.40
2018-11-29T01:47:08.372Z,-4.30
2018-11-29T01:49:44.154Z,-4.30
2018-11-29T01:52:20.917Z,-4.30
2018-11-29T01:54:56.829Z,-4.30
2018-11-29T01:57:35.133Z,-4.30
2018-11-29T02:00:14.142Z,-4.30
2018-11-29T02:02:55.606Z,-4.40
2018-11-29T02:05:30.420Z,-4.40
2018-11-29T02:08:06.459Z,-4.40
2018-11-29T02:10:47.481Z,-4.40
2018-11-29T02:13:23.273Z,-4.40
2018-11-29T02:15:59.614Z,-4.50
2018-11-29T02:18:35.505Z,-4.50
2018-11-29T02:21:11.385Z,-4.50
2018-11-29T02:23:47.372Z,-4.50
2018-11-29T02:26:23.428Z,-4.50
2018-11-29T02:28:59.227Z,-4.60
2018-11-29T02:31:37.323Z,-4.60
2018-11-29T02:34:12.980Z,-4.60
2018-11-29T02:36:49.283Z,-4.60
2018-11-29T02:39:25.698Z,-4.60
2018-11-29T02:42:01.762Z,-4.60
2018-11-29T02:44:37.766Z,-4.50
2018-11-29T02:47:14.349Z,-4.50
2018-11-29T02:49:50.399Z,-4.50
2018-11-29T02:52:26.342Z,-4.60
2018-11-29T02:55:03.062Z,-4.60
2018-11-29T02:57:38.757Z,-4.70
2018-11-29T03:00:16.343Z,-4.70
2018-11-29T03:02:52.460Z,-4.80
2018-11-29T03:05:28.171Z,-4.80
2018-11-29T03:08:03.865Z,-4.80
2018-11-29T03:10:40.025Z,-4.80
2018-11-29T03:13:16.323Z,-4.80
2018-11-29T03:15:52.391Z,-4.90
2018-11-29T03:18:28.110Z,-4.80
2018-11-29T03:21:05.713Z,-4.80
2018-11-29T03:23:42.013Z,-4.80
2018-11-29T03:26:18.262Z,-4.80
2018-11-29T03:28:54.285Z,-4.90
2018-11-29T03:31:30.137Z,-4.80
2018-11-29T03:34:07.531Z,-4.80
2018-11-29T03:36:43.933Z,-4.70
2018-11-29T03:39:19.800Z,-4.70
2018-11-29T03:41:55.698Z,-4.70
2018-11-29T03:44:31.496Z,-4.70
2018-11-29T03:47:07.436Z,-4.80
2018-11-29T03:49:43.499Z,-4.80
2018-11-29T03:52:19.155Z,-4.80
2018-11-29T03:54:55.143Z,-4.80
2018-11-29T03:57:30.913Z,-4.80
2018-11-29T04:00:17.839Z,-4.80
2018-11-29T04:02:53.827Z,-4.80
2018-11-29T04:05:29.579Z,-4.80
2018-11-29T04:08:05.291Z,-4.90
2018-11-29T04:10:41.025Z,-4.90
2018-11-29T04:13:16.847Z,-4.80
2018-11-29T04:15:52.831Z,-4.80
2018-11-29T04:18:28.487Z,-4.90
2018-11-29T04:21:04.313Z,-4.90
2018-11-29T04:23:40.022Z,-4.90
2018-11-29T04:26:16.111Z,-4.90
2018-11-29T04:28:52.102Z,-4.90
2018-11-29T04:31:28.097Z,-4.90
2018-11-29T04:34:04.644Z,-4.90
2018-11-29T04:36:40.421Z,-4.90
2018-11-29T04:39:16.353Z,-5.00
2018-11-29T04:41:53.399Z,-5.00
2018-11-29T04:44:29.397Z,-5.00
2018-11-29T04:47:05.263Z,-5.00
2018-11-29T04:49:41.198Z,-5.10
2018-11-29T04:52:17.261Z,-5.10
2018-11-29T04:54:54.196Z,-5.10
2018-11-29T04:57:30.703Z,-5.10
2018-11-29T05:00:21.434Z,-5.20
2018-11-29T05:02:57.664Z,-5.20
2018-11-29T05:05:33.618Z,-5.30
2018-11-29T05:08:09.660Z,-5.30
2018-11-29T05:10:45.606Z,-5.40
2018-11-29T05:13:21.441Z,-5.40
2018-11-29T05:15:57.373Z,-5.50
2018-11-29T05:18:33.149Z,-5.50
2018-11-29T05:21:08.898Z,-5.50
2018-11-29T05:23:45.498Z,-5.60
2018-11-29T05:26:22.307Z,-5.60
2018-11-29T05:28:58.378Z,-5.60
2018-11-29T05:31:34.302Z,-5.60
2018-11-29T05:34:10.042Z,-5.60
2018-11-29T05:36:45.874Z,-5.60
2018-11-29T05:39:21.665Z,-5.60
2018-11-29T05:41:57.801Z,-5.60
2018-11-29T05:44:33.776Z,-5.50
2018-11-29T05:47:09.693Z,-5.50
2018-11-29T05:49:45.507Z,-5.50
2018-11-29T05:52:21.489Z,-5.50
2018-11-29T05:54:58.064Z,-5.50
2018-11-29T05:57:34.299Z,-5.50
2018-11-29T06:00:13.747Z,-5.50
2018-11-29T06:02:49.617Z,-5.50
2018-11-29T06:05:26.242Z,-5.40
2018-11-29T06:08:02.154Z,-5.40
2018-11-29T06:10:38.118Z,-5.40
2018-11-29T06:13:13.873Z,-5.40
2018-11-29T06:15:49.718Z,-5.30
2018-11-29T06:18:25.438Z,-5.20
2018-11-29T06:21:02.835Z,-5.20
2018-11-29T06:23:38.533Z,-5.20
2018-11-29T06:26:14.392Z,-5.20
2018-11-29T06:28:50.268Z,-5.20
2018-11-29T06:31:26.662Z,-5.20
2018-11-29T06:34:03.139Z,-5.20
2018-11-29T06:36:39.631Z,-5.30
2018-11-29T06:39:15.925Z,-5.30
2018-11-29T06:41:51.829Z,-5.20
2018-11-29T06:44:27.861Z,-5.20
2018-11-29T06:47:04.008Z,-5.20
2018-11-29T06:49:39.916Z,-5.20
2018-11-29T06:52:16.534Z,-5.20
2018-11-29T06:54:52.676Z,-5.10
2018-11-29T06:57:28.578Z,-5.20
2018-11-29T07:00:07.462Z,-5.10
2018-11-29T07:02:43.483Z,-5.10
2018-11-29T07:05:21.682Z,-5.10
2018-11-29T07:07:58.325Z,-5.00
2018-11-29T07:10:35.075Z,-5.00
2018-11-29T07:13:10.915Z,-4.90
2018-11-29T07:15:47.616Z,-4.80
2018-11-29T07:18:23.621Z,-4.80
2018-11-29T07:21:11.650Z,-4.70
2018-11-29T07:23:47.702Z,-4.60
2018-11-29T07:26:23.587Z,-4.50
2018-11-29T07:28:59.760Z,-4.40
2018-11-29T07:31:36.395Z,-4.30
2018-11-29T07:34:13.002Z,-4.20
2018-11-29T07:36:49.190Z,-4.10
2018-11-29T07:39:25.053Z,-3.90
2018-11-29T07:42:00.989Z,-3.80
2018-11-29T07:44:37.038Z,-3.70
2018-11-29T07:47:13.184Z,-3.60
2018-11-29T07:49:49.159Z,-3.50
2018-11-29T07:52:25.750Z,-3.50
2018-11-29T07:55:01.992Z,-3.40
2018-11-29T07:57:38.147Z,-3.40
2018-11-29T08:00:15.815Z,-3.40
2018-11-29T08:02:52.186Z,-3.30
2018-11-29T08:05:28.140Z,-3.20
2018-11-29T08:08:04.016Z,-3.20
2018-11-29T08:10:40.223Z,-3.10
2018-11-29T08:13:17.281Z,-3.00
2018-11-29T08:15:53.587Z,-3.00
2018-11-29T08:18:29.673Z,-3.00
2018-11-29T08:21:06.465Z,-2.90
2018-11-29T08:23:43.242Z,-2.90
2018-11-29T08:26:19.780Z,-2.80
2018-11-29T08:28:55.671Z,-2.70
2018-11-29T08:31:31.363Z,-2.60
2018-11-29T08:34:07.559Z,-2.60
2018-11-29T08:36:43.627Z,-2.50
2018-11-29T08:39:19.885Z,-2.50
2018-11-29T08:41:56.726Z,-2.40
2018-11-29T08:44:32.676Z,-2.30
2018-11-29T08:47:08.924Z,-2.30
2018-11-29T08:49:45.661Z,-2.20
2018-11-29T08:52:21.841Z,-2.10
2018-11-29T08:54:57.994Z,-2.00
2018-11-29T08:57:34.788Z,-1.90
2018-11-29T09:00:26.335Z,-1.80
2018-11-29T09:03:02.739Z,-1.70
2018-11-29T09:05:38.570Z,-1.60
2018-11-29T09:08:14.638Z,-1.50
2018-11-29T09:10:51.313Z,-1.50
2018-11-29T09:13:28.221Z,-1.50
2018-11-29T09:16:04.904Z,-1.50
2018-11-29T09:18:41.276Z,-1.50
2018-11-29T09:21:17.588Z,-1.60
2018-11-29T09:23:55.203Z,-1.50
2018-11-29T09:26:31.998Z,-1.50
2018-11-29T09:29:07.929Z,-1.50
2018-11-29T09:31:45.192Z,-1.40
2018-11-29T09:34:22.295Z,-1.30
2018-11-29T09:36:58.673Z,-1.20
2018-11-29T09:39:34.526Z,-1.10
2018-11-29T09:42:11.693Z,-1.10
2018-11-29T09:44:48.395Z,-1.00
2018-11-29T09:47:25.105Z,-0.90
2018-11-29T09:50:00.866Z,-0.90
2018-11-29T09:52:36.824Z,-0.90
2018-11-29T09:55:13.944Z,-0.90
2018-11-29T09:57:50.671Z,-0.80
2018-11-29T10:00:28.904Z,-0.70
2018-11-29T10:03:08.275Z,-0.70
2018-11-29T10:05:45.832Z,-0.60
2018-11-29T10:08:26.036Z,-0.60
2018-11-29T10:10:58.774Z,-0.50
2018-11-29T10:13:35.282Z,-0.40
2018-11-29T10:16:11.096Z,-0.40
2018-11-29T10:18:47.278Z,-0.30
2018-11-29T10:21:23.162Z,-0.30
2018-11-29T10:23:59.106Z,-0.10
2018-11-29T10:26:34.889Z,-0.10
2018-11-29T10:29:11.381Z,0.00
2018-11-29T10:31:47.471Z,0.10
2018-11-29T10:34:23.430Z,0.10
2018-11-29T10:36:59.163Z,0.10
2018-11-29T10:39:35.146Z,0.10
2018-11-29T10:42:11.067Z,0.20
2018-11-29T10:44:46.941Z,0.20
2018-11-29T10:47:22.722Z,0.30
2018-11-29T10:49:58.581Z,0.30
2018-11-29T10:52:34.461Z,0.40
2018-11-29T10:55:16.507Z,0.50
2018-11-29T10:57:53.124Z,0.60
2018-11-29T11:00:39.500Z,0.70
2018-11-29T11:03:18.062Z,0.80
2018-11-29T11:05:54.676Z,0.80
2018-11-29T11:08:31.229Z,0.80
2018-11-29T11:11:08.865Z,0.80
2018-11-29T11:13:44.668Z,0.80
2018-11-29T11:16:21.219Z,0.80
2018-11-29T11:18:57.299Z,0.80
2018-11-29T11:21:33.265Z,0.80
2018-11-29T11:24:09.214Z,0.90
2018-11-29T11:26:45.097Z,1.00
2018-11-29T11:29:20.999Z,1.10
2018-11-29T11:31:58.086Z,1.10
2018-11-29T11:34:34.083Z,1.10
2018-11-29T11:37:09.959Z,1.20
2018-11-29T11:39:45.922Z,1.20
2018-11-29T11:42:21.745Z,1.30
2018-11-29T11:44:57.726Z,1.30
2018-11-29T11:47:33.380Z,1.30
2018-11-29T11:50:13.116Z,1.40
2018-11-29T11:52:50.152Z,1.40
2018-11-29T11:55:29.961Z,1.40
2018-11-29T11:58:02.995Z,1.50
2018-11-29T12:00:39.619Z,1.40
2018-11-29T12:03:16.995Z,1.40
2018-11-29T12:05:52.645Z,1.40
2018-11-29T12:08:29.251Z,1.40
2018-11-29T12:11:05.830Z,1.40
2018-11-29T12:13:41.496Z,1.50
2018-11-29T12:16:17.583Z,1.50
2018-11-29T12:18:53.450Z,1.50
2018-11-29T12:21:29.494Z,1.60
2018-11-29T12:24:05.224Z,1.60
2018-11-29T12:26:41.856Z,1.70
2018-11-29T12:29:18.067Z,1.90
2018-11-29T12:31:54.760Z,2.00
2018-11-29T12:34:31.066Z,2.10
2018-11-29T12:37:06.961Z,2.20
2018-11-29T12:39:42.952Z,2.20
2018-11-29T12:42:19.203Z,2.20
2018-11-29T12:44:55.065Z,2.20
2018-11-29T12:47:30.954Z,2.20
2018-11-29T12:50:12.009Z,2.30
2018-11-29T12:52:47.892Z,2.30
2018-11-29T12:55:25.763Z,2.30
2018-11-29T12:58:05.636Z,2.30
2018-11-29T13:00:38.394Z,2.40
2018-11-29T13:03:14.238Z,2.50
2018-11-29T13:05:50.034Z,2.50
2018-11-29T13:08:26.970Z,2.70
2018-11-29T13:11:02.699Z,2.70
2018-11-29T13:13:38.407Z,2.60
2018-11-29T13:16:14.153Z,2.60
2018-11-29T13:18:49.966Z,2.50
2018-11-29T13:21:27.699Z,2.50
2018-11-29T13:24:04.007Z,2.60
2018-11-29T13:26:40.731Z,2.60
2018-11-29T13:29:17.693Z,2.60
2018-11-29T13:31:54.355Z,2.50
2018-11-29T13:34:30.123Z,2.60
2018-11-29T13:37:06.377Z,2.60
2018-11-29T13:39:42.396Z,2.70
2018-11-29T13:42:18.289Z,2.70
2018-11-29T13:44:54.041Z,2.80
2018-11-29T13:47:30.429Z,2.80
2018-11-29T13:50:09.534Z,2.90
2018-11-29T13:52:46.462Z,2.90
2018-11-29T13:55:23.031Z,2.80
2018-11-29T13:57:59.032Z,2.90
2018-11-29T14:00:35.140Z,2.90
2018-11-29T14:03:12.284Z,3.00
2018-11-29T14:05:48.938Z,3.00
2018-11-29T14:08:24.500Z,3.10
2018-11-29T14:11:00.419Z,3.10
2018-11-29T14:13:36.342Z,3.20
2018-11-29T14:16:12.188Z,3.10
2018-11-29T14:18:48.770Z,2.90
2018-11-29T14:21:24.972Z,2.80
2018-11-29T14:24:01.217Z,2.60
2018-11-29T14:26:37.157Z,2.20
2018-11-29T14:29:13.877Z,1.80
2018-11-29T14:31:50.079Z,1.40
2018-11-29T14:34:25.981Z,1.10
2018-11-29T14:37:02.237Z,0.80
2018-11-29T14:39:38.762Z,0.60
2018-11-29T14:42:14.840Z,0.40
2018-11-29T14:44:50.735Z,0.40
2018-11-29T14:47:27.922Z,0.20
2018-11-29T14:50:04.358Z,0.10
2018-11-29T14:52:41.072Z,0.00
2018-11-29T14:55:16.824Z,0.00
2018-11-29T14:57:53.542Z,-0.10
2018-11-29T15:00:29.771Z,-0.20
2018-11-29T15:03:08.938Z,-0.30
2018-11-29T15:05:46.403Z,-0.30
2018-11-29T15:08:22.498Z,-0.40
2018-11-29T15:10:59.180Z,-0.50
2018-11-29T15:13:34.939Z,-0.50
2018-11-29T15:16:11.228Z,-0.50
2018-11-29T15:18:47.625Z,-0.60
2018-11-29T15:21:24.576Z,-0.60
2018-11-29T15:24:01.344Z,-0.70
2018-11-29T15:26:38.551Z,-0.70
2018-11-29T15:29:15.684Z,-0.70
2018-11-29T15:31:51.801Z,-0.80
2018-11-29T15:34:29.667Z,-0.90
2018-11-29T15:37:05.895Z,-0.90
2018-11-29T15:39:41.490Z,-1.00
2018-11-29T15:42:18.208Z,-1.00
2018-11-29T15:44:54.181Z,-1.10
2018-11-29T15:47:30.433Z,-1.10
2018-11-29T15:50:10.178Z,-1.10
2018-11-29T15:52:46.714Z,-1.10
2018-11-29T15:55:23.372Z,-1.10
2018-11-29T15:57:59.465Z,-1.20
2018-11-29T16:00:35.428Z,-1.20
2018-11-29T16:03:11.237Z,-1.30
2018-11-29T16:05:47.077Z,-1.20
2018-11-29T16:08:22.920Z,-1.20
2018-11-29T16:10:58.846Z,-1.20
2018-11-29T16:13:34.699Z,-1.20
2018-11-29T16:16:10.467Z,-1.20
2018-11-29T16:18:46.280Z,-1.20
2018-11-29T16:21:22.835Z,-1.30
2018-11-29T16:23:58.669Z,-1.30
2018-11-29T16:26:34.702Z,-1.40
2018-11-29T16:29:11.447Z,-1.40
2018-11-29T16:31:49.307Z,-1.40
2018-11-29T16:34:25.213Z,-1.40
2018-11-29T16:37:01.056Z,-1.50
2018-11-29T16:39:37.074Z,-1.50
2018-11-29T16:42:12.757Z,-1.50
2018-11-29T16:44:48.630Z,-1.50
2018-11-29T16:47:25.048Z,-1.60
2018-11-29T16:50:01.255Z,-1.60
2018-11-29T16:52:37.223Z,-1.60
2018-11-29T16:55:13.392Z,-1.50
2018-11-29T16:57:50.834Z,-1.60
2018-11-29T17:00:26.932Z,-1.60
2018-11-29T17:03:02.723Z,-1.60
2018-11-29T17:05:38.860Z,-1.60
2018-11-29T17:08:14.422Z,-1.60
2018-11-29T17:10:50.490Z,-1.60
2018-11-29T17:13:26.231Z,-1.60
2018-11-29T17:16:02.062Z,-1.70
2018-11-29T17:18:38.867Z,-1.70
2018-11-29T17:21:14.811Z,-1.70
2018-11-29T17:23:50.906Z,-1.70
2018-11-29T17:26:26.686Z,-1.70
2018-11-29T17:29:02.565Z,-1.70
2018-11-29T17:31:41.091Z,-1.70
2018-11-29T17:34:16.943Z,-1.70
2018-11-29T17:36:52.704Z,-1.70
2018-11-29T17:39:28.699Z,-1.80
2018-11-29T17:42:04.793Z,-1.70
2018-11-29T17:44:40.516Z,-1.70
2018-11-29T17:47:16.344Z,-1.70
2018-11-29T17:49:53.350Z,-1.70
2018-11-29T17:52:28.386Z,-1.70
2018-11-29T17:55:05.391Z,-1.70
2018-11-29T17:57:41.176Z,-1.70
2018-11-29T18:00:19.299Z,-1.80
2018-11-29T18:02:55.141Z,-1.80
2018-11-29T18:05:31.038Z,-1.90
2018-11-29T18:08:07.783Z,-1.90
2018-11-29T18:10:43.834Z,-1.90
2018-11-29T18:13:22.315Z,-1.90
2018-11-29T18:15:58.428Z,-1.90
2018-11-29T18:18:34.412Z,-1.90
2018-11-29T18:21:10.250Z,-1.90
2018-11-29T18:23:47.073Z,-2.00
2018-11-29T18:26:23.194Z,-2.00
2018-11-29T18:28:59.129Z,-2.00
2018-11-29T18:31:35.126Z,-2.00
2018-11-29T18:34:11.049Z,-2.00
2018-11-29T18:36:47.125Z,-2.10
2018-11-29T18:39:24.047Z,-2.10
2018-11-29T18:42:00.072Z,-2.10
2018-11-29T18:44:40.195Z,-2.10
2018-11-29T18:47:19.314Z,-2.20
2018-11-29T18:49:58.051Z,-2.20
2018-11-29T18:52:34.342Z,-2.30
2018-11-29T18:55:16.247Z,-2.30
2018-11-29T18:57:55.474Z,-2.30
2018-11-29T19:00:33.679Z,-2.30
2018-11-29T19:03:10.758Z,-2.30
2018-11-29T19:05:46.955Z,-2.30
2018-11-29T19:08:23.324Z,-2.30
2018-11-29T19:11:00.956Z,-2.30
2018-11-29T19:13:36.944Z,-2.30
2018-11-29T19:16:12.807Z,-2.30
2018-11-29T19:18:48.708Z,-2.30
2018-11-29T19:21:24.395Z,-2.30
2018-11-29T19:24:01.463Z,-2.30
2018-11-29T19:26:37.941Z,-2.40
2018-11-29T19:29:14.553Z,-2.40
2018-11-29T19:31:55.960Z,-2.40
2018-11-29T19:34:33.124Z,-2.40
2018-11-29T19:37:10.079Z,-2.40
2018-11-29T19:39:46.772Z,-2.40
2018-11-29T19:42:23.556Z,-2.40
2018-11-29T19:44:59.836Z,-2.40
2018-11-29T19:47:36.242Z,-2.30
2018-11-29T19:50:16.352Z,-2.40
2018-11-29T19:52:56.150Z,-2.40
2018-11-29T19:55:34.566Z,-2.30
2018-11-29T19:58:11.365Z,-2.30
2018-11-29T20:00:47.781Z,-2.30
2018-11-29T20:03:25.577Z,-2.30
2018-11-29T20:06:03.604Z,-2.30
2018-11-29T20:08:43.709Z,-2.40
2018-11-29T20:11:22.555Z,-2.40
2018-11-29T20:14:01.548Z,-2.40
2018-11-29T20:16:39.309Z,-2.40
2018-11-29T20:19:16.853Z,-2.40
2018-11-29T20:21:53.418Z,-2.30
2018-11-29T20:24:34.491Z,-2.40
2018-11-29T20:27:11.772Z,-2.40
2018-11-29T20:29:49.641Z,-2.40
2018-11-29T20:32:28.457Z,-2.40
2018-11-29T20:35:07.454Z,-2.40
2018-11-29T20:37:45.423Z,-2.40
2018-11-29T20:40:27.791Z,-2.40
2018-11-29T20:43:07.374Z,-2.40
2018-11-29T20:45:53.508Z,-2.40
2018-11-29T20:48:31.617Z,-2.30
2018-11-29T20:51:08.298Z,-2.40
2018-11-29T20:53:44.757Z,-2.40
2018-11-29T20:56:21.707Z,-2.40
2018-11-29T20:58:58.599Z,-2.40
2018-11-29T21:01:35.606Z,-2.40
2018-11-29T21:04:12.061Z,-2.50
2018-11-29T21:06:49.008Z,-2.40
2018-11-29T21:09:28.890Z,-2.40
2018-11-29T21:12:06.045Z,-2.40
2018-11-29T21:14:42.692Z,-2.40
2018-11-29T21:17:19.144Z,-2.40
2018-11-29T21:19:55.432Z,-2.50
2018-11-29T21:22:32.464Z,-2.50
2018-11-29T21:25:14.066Z,-2.50
2018-11-29T21:27:51.018Z,-2.60
2018-11-29T21:30:29.675Z,-2.60
2018-11-29T21:33:08.843Z,-2.50
2018-11-29T21:35:48.858Z,-2.60
2018-11-29T21:38:26.306Z,-2.60
2018-11-29T21:41:04.408Z,-2.60
2018-11-29T21:43:40.898Z,-2.50
2018-11-29T21:46:17.691Z,-2.50
2018-11-29T21:48:56.744Z,-2.50
2018-11-29T21:51:33.090Z,-2.50
2018-11-29T21:54:09.896Z,-2.50
2018-11-29T21:56:45.877Z,-2.50
2018-11-29T21:59:22.888Z,-2.60
2018-11-29T22:02:00.237Z,-2.60
2018-11-29T22:04:36.763Z,-2.60
2018-11-29T22:07:12.973Z,-2.70
2018-11-29T22:09:49.000Z,-2.70
2018-11-29T22:12:26.021Z,-2.70
2018-11-29T22:15:02.227Z,-2.80
2018-11-29T22:17:45.925Z,-2.80
2018-11-29T22:20:22.160Z,-2.90
2018-11-29T22:22:57.751Z,-2.90
2018-11-29T22:25:33.503Z,-2.90
2018-11-29T22:28:09.578Z,-3.00
2018-11-29T22:30:45.970Z,-3.00
2018-11-29T22:33:22.520Z,-3.10
2018-11-29T22:35:58.471Z,-3.10
2018-11-29T22:38:34.274Z,-3.10
2018-11-29T22:41:10.251Z,-3.10
2018-11-29T22:43:46.128Z,-3.00
2018-11-29T22:46:21.969Z,-3.00
2018-11-29T22:48:57.947Z,-3.00
2018-11-29T22:51:33.717Z,-3.00
2018-11-29T22:54:09.552Z,-3.00
2018-11-29T22:56:45.480Z,-3.00
2018-11-29T22:59:21.160Z,-3.10
2018-11-29T23:01:57.088Z,-3.10
2018-11-29T23:04:32.775Z,-3.10
2018-11-29T23:07:08.565Z,-3.10
2018-11-29T23:09:44.884Z,-3.10
2018-11-29T23:12:25.408Z,-3.10
2018-11-29T23:15:01.193Z,-3.10
2018-11-29T23:17:37.090Z,-3.20
2018-11-29T23:20:13.220Z,-3.20
2018-11-29T23:22:49.773Z,-3.20
2018-11-29T23:25:25.695Z,-3.20
2018-11-29T23:28:01.776Z,-3.20
2018-11-29T23:30:37.464Z,-3.20
2018-11-29T23:33:13.358Z,-3.20
2018-11-29T23:35:49.361Z,-3.20
2018-11-29T23:38:25.424Z,-3.20
2018-11-29T23:41:01.214Z,-3.20
2018-11-29T23:43:37.188Z,-3.30
2018-11-29T23:46:13.114Z,-3.20
2018-11-29T23:48:48.930Z,-3.20
2018-11-29T23:51:25.303Z,-3.20
2018-11-29T23:54:02.017Z,-3.20
2018-11-29T23:56:38.079Z,-3.30
2018-11-29T23:59:14.873Z,-3.40
